Time;durP1;ratioP1;P1;durP2;ratioP2;P2;SDS_P1;SDS_P2;PMS_P1;PMS_P2;Temp;Humidity;BMP_temperature;BMP_pressure;BME280_temperature;BME280_humidity;BME280_pressure;Samples;Min_cycle;Max_cycle;Signal;HPM_P1;HPM_P2
2021/09/18 00:00:37;;;;;;;;;15.50;12.25;;;;;20.53;54.83;100988.69;6278724;22;45300;-68
2021/09/18 00:03:03;;;;;;;;;15.00;13.75;;;;;20.55;54.83;100994.00;6279302;22;45168;-68
2021/09/18 00:05:28;;;;;;;;;12.75;12.00;;;;;20.62;54.88;101008.84;6279097;22;45222;-68
2021/09/18 00:07:54;;;;;;;;;13.50;13.00;;;;;20.51;54.91;100993.34;6278844;22;45324;-68
2021/09/18 00:10:19;;;;;;;;;10.75;10.75;;;;;20.50;54.81;100988.88;6278490;22;45205;-68
2021/09/18 00:12:44;;;;;;;;;14.75;14.75;;;;;20.52;54.67;100996.91;6279283;22;45193;-68
2021/09/18 00:15:10;;;;;;;;;5.50;5.50;;;;;20.45;55.32;100974.78;6277017;22;45509;-68
2021/09/18 00:17:36;;;;;;;;;13.75;12.50;;;;;20.66;55.58;101017.66;6278991;22;45948;-70
2021/09/18 00:20:02;;;;;;;;;13.50;12.50;;;;;20.58;55.12;101001.03;6302096;22;46035;-70
2021/09/18 00:22:28;;;;;;;;;9.75;9.25;;;;;20.31;54.88;100961.31;6276228;22;45401;-70
2021/09/18 00:24:53;;;;;;;;;13.75;13.25;;;;;20.50;55.20;100997.03;6276819;22;45540;-71
2021/09/18 00:27:19;;;;;;;;;11.00;11.00;;;;;20.48;55.09;100998.97;6278937;22;45353;-68
2021/09/18 00:29:44;;;;;;;;;12.25;12.25;;;;;20.48;55.63;100996.28;6302587;22;45183;-68
2021/09/18 00:32:09;;;;;;;;;17.25;14.00;;;;;20.48;55.37;101001.69;6278848;22;45337;-68
2021/09/18 00:34:35;;;;;;;;;15.50;14.50;;;;;20.53;55.80;101006.75;6279048;22;45255;-68
2021/09/18 00:37:00;;;;;;;;;14.00;14.00;;;;;20.59;55.67;101019.91;6276745;22;47151;-68
2021/09/18 00:39:25;;;;;;;;;14.75;12.50;;;;;20.48;55.71;100996.28;6276743;22;45755;-68
2021/09/18 00:41:51;;;;;;;;;16.50;16.50;;;;;20.55;55.71;101012.97;6276885;22;45378;-68
2021/09/18 00:44:18;;;;;;;;;12.50;11.25;;;;;20.41;55.52;100981.38;6276671;22;45318;-68
2021/09/18 00:46:48;;;;;;;;;14.75;13.25;;;;;20.40;55.67;100986.91;6278822;22;45222;-68
2021/09/18 00:49:13;;;;;;;;;12.00;11.50;;;;;20.48;55.60;101004.41;6278749;22;45677;-68
2021/09/18 00:51:39;;;;;;;;;13.75;13.50;;;;;20.50;56.03;101007.00;6279326;22;45286;-68
2021/09/18 00:54:07;;;;;;;;;15.00;15.00;;;;;20.31;55.82;100977.59;6279134;22;45223;-68
2021/09/18 00:56:32;;;;;;;;;16.00;13.25;;;;;20.40;56.14;100989.63;6278894;22;45371;-68
2021/09/18 00:58:58;;;;;;;;;14.00;13.50;;;;;20.50;55.68;101004.31;6302533;22;45374;-68
2021/09/18 01:01:23;;;;;;;;;16.75;14.25;;;;;20.33;55.85;100978.34;6279014;22;45169;-68
2021/09/18 01:03:48;;;;;;;;;16.00;14.25;;;;;20.34;55.64;100969.25;6277188;22;45785;-68
2021/09/18 01:06:14;;;;;;;;;13.75;13.75;;;;;20.24;55.90;100951.88;6302448;22;47569;-68
2021/09/18 01:08:41;;;;;;;;;15.00;13.50;;;;;20.26;55.65;100964.34;6278026;22;45244;-68
2021/09/18 01:11:07;;;;;;;;;17.75;16.00;;;;;20.45;55.94;100995.63;6276798;22;45324;-68
2021/09/18 01:13:33;;;;;;;;;16.00;16.00;;;;;20.35;55.84;100988.13;6278850;22;45260;-68
2021/09/18 01:15:59;;;;;;;;;14.75;12.75;;;;;20.39;55.85;100987.91;6278436;22;45384;-68
2021/09/18 01:18:24;;;;;;;;;14.25;13.75;;;;;20.35;55.96;100989.97;6278674;22;45294;-68
2021/09/18 01:20:50;;;;;;;;;16.75;16.25;;;;;20.36;55.16;100981.72;6303052;22;45992;-68
2021/09/18 01:23:18;;;;;;;;;16.25;14.75;;;;;20.12;55.41;100950.91;6278855;22;45389;-68
2021/09/18 01:25:43;;;;;;;;;15.25;15.25;;;;;20.26;55.26;100994.16;6278704;22;45513;-68
2021/09/18 01:28:08;;;;;;;;;15.50;14.50;;;;;20.05;55.33;100961.31;6278479;22;45174;-68
2021/09/18 01:30:36;;;;;;;;;14.25;14.25;;;;;20.14;55.22;100987.75;6278904;22;45450;-68
2021/09/18 01:33:04;;;;;;;;;12.50;12.25;;;;;20.04;55.52;100972.25;6278741;22;45308;-68
2021/09/18 01:35:29;;;;;;;;;12.00;11.00;;;;;20.02;55.57;100971.47;6278690;22;45245;-68
2021/09/18 01:37:55;;;;;;;;;13.25;13.25;;;;;20.08;55.55;100984.59;6278373;22;45385;-68
2021/09/18 01:40:23;;;;;;;;;9.00;9.00;;;;;20.01;56.14;100967.03;6302864;22;45234;-68
2021/09/18 01:42:49;;;;;;;;;11.75;11.50;;;;;20.15;55.95;100994.91;6276876;22;45406;-68
2021/09/18 01:45:15;;;;;;;;;10.25;9.75;;;;;19.95;55.93;100958.34;6302178;22;47049;-68
2021/09/18 01:47:46;;;;;;;;;11.25;11.25;;;;;19.94;56.11;100964.72;6303048;22;45245;-68
2021/09/18 01:50:34;;;;;;;;;14.00;13.50;;;;;19.97;56.10;100960.94;6278381;22;45259;-68
2021/09/18 01:53:02;;;;;;;;;13.00;13.00;;;;;19.99;55.91;100968.00;6278860;22;45137;-68
2021/09/18 01:55:28;;;;;;;;;12.75;12.75;;;;;19.96;55.86;100964.63;6302807;22;47846;-68
2021/09/18 01:57:56;;;;;;;;;12.00;11.75;;;;;19.98;55.77;100957.28;6278418;22;45411;-68
2021/09/18 02:00:22;;;;;;;;;9.25;9.25;;;;;20.07;56.29;100981.03;6276380;22;45609;-68
2021/09/18 02:02:48;;;;;;;;;10.75;8.25;;;;;20.01;56.04;100967.03;6278661;22;45469;-68
2021/09/18 02:05:18;;;;;;;;;12.00;11.50;;;;;20.07;56.09;100983.72;6278041;22;45258;-68
2021/09/18 02:07:43;;;;;;;;;12.75;12.75;;;;;20.07;55.81;100980.16;6302567;22;45286;-68
2021/09/18 02:10:11;;;;;;;;;15.75;13.50;;;;;19.93;55.78;100963.00;6276247;22;45768;-68
2021/09/18 02:12:37;;;;;;;;;14.25;13.25;;;;;20.04;56.14;100991.22;6302703;22;45485;-68
2021/09/18 02:15:04;;;;;;;;;17.50;15.25;;;;;19.95;55.66;100968.31;6275905;22;47248;-68
2021/09/18 02:17:29;;;;;;;;;16.50;15.00;;;;;20.03;55.65;100986.75;6276494;22;45184;-67
2021/09/18 02:19:55;;;;;;;;;19.00;15.25;;;;;19.81;55.70;100953.00;6277488;22;45148;-68
2021/09/18 02:22:20;;;;;;;;;15.50;14.75;;;;;19.98;56.01;100987.09;6276453;22;45432;-68
2021/09/18 02:24:46;;;;;;;;;12.75;11.50;;;;;19.98;56.30;100984.38;6278133;22;46289;-68
2021/09/18 02:27:11;;;;;;;;;13.75;12.75;;;;;19.80;55.70;100948.56;6278399;22;45441;-68
2021/09/18 02:29:37;;;;;;;;;12.00;12.00;;;;;19.78;55.95;100948.66;6277562;22;45246;-68
2021/09/18 02:32:03;;;;;;;;;13.25;13.25;;;;;19.95;56.24;100971.91;6278416;22;45484;-68
2021/09/18 02:34:29;;;;;;;;;9.75;9.75;;;;;19.90;56.11;100968.63;6278456;22;45568;-68
2021/09/18 02:36:54;;;;;;;;;12.75;12.75;;;;;19.95;55.84;100987.28;6278345;22;45443;-68
2021/09/18 02:39:20;;;;;;;;;13.75;13.75;;;;;19.72;55.86;100942.75;6302340;22;45239;-68
2021/09/18 02:41:45;;;;;;;;;14.50;13.25;;;;;19.92;55.79;100974.81;6276459;22;45389;-68
2021/09/18 02:44:10;;;;;;;;;15.75;15.75;;;;;19.79;55.64;100963.06;6302039;22;48814;-68
2021/09/18 02:46:36;;;;;;;;;13.75;12.50;;;;;19.87;55.70;100976.09;6277914;22;45160;-68
2021/09/18 02:49:01;;;;;;;;;15.75;15.75;;;;;19.69;55.73;100943.81;6278009;22;45166;-68
2021/09/18 02:51:27;;;;;;;;;13.25;12.75;;;;;19.75;55.98;100954.28;6278347;22;45218;-68
2021/09/18 02:53:52;;;;;;;;;10.75;10.25;;;;;19.75;56.06;100953.44;6278050;22;45141;-68
2021/09/18 02:56:18;;;;;;;;;12.25;11.50;;;;;19.80;56.43;100951.28;6278160;22;45251;-68
2021/09/18 02:58:43;;;;;;;;;16.50;14.00;;;;;19.61;56.25;100924.50;6302026;22;45112;-68
2021/09/18 03:01:09;;;;;;;;;15.00;13.50;;;;;19.68;56.43;100931.28;6277688;22;45406;-68
2021/09/18 03:03:34;;;;;;;;;16.50;15.75;;;;;19.69;56.49;100942.97;6278090;22;45217;-68
2021/09/18 03:05:59;;;;;;;;;16.00;14.00;;;;;19.66;56.37;100937.75;6277826;22;45239;-68
2021/09/18 03:08:25;;;;;;;;;14.25;13.50;;;;;19.67;56.50;100942.22;6278079;22;45298;-68
2021/09/18 03:10:51;;;;;;;;;10.25;10.25;;;;;19.88;56.26;100978.72;6275373;22;45549;-68
2021/09/18 03:13:17;;;;;;;;;13.00;12.00;;;;;19.62;56.37;100931.69;6275766;22;46621;-68
2021/09/18 03:15:42;;;;;;;;;15.00;13.50;;;;;19.89;56.15;100971.44;6277472;22;45608;-68
2021/09/18 03:18:07;;;;;;;;;16.25;14.25;;;;;19.90;56.06;100967.78;6278148;22;45207;-68
2021/09/18 03:20:33;;;;;;;;;13.25;13.25;;;;;19.77;55.97;100959.59;6278136;22;45349;-68
2021/09/18 03:22:58;;;;;;;;;11.00;9.75;;;;;19.75;55.58;100961.56;6277881;22;46316;-67
2021/09/18 03:25:23;;;;;;;;;11.50;11.50;;;;;19.75;56.11;100965.13;6277552;22;45249;-68
2021/09/18 03:27:49;;;;;;;;;9.75;9.25;;;;;19.70;55.79;100960.97;6301987;22;45870;-68
2021/09/18 03:30:14;;;;;;;;;12.25;12.00;;;;;19.66;55.59;100945.88;6278001;22;45389;-68
2021/09/18 03:32:40;;;;;;;;;10.75;10.75;;;;;19.79;55.67;100965.78;6279181;22;46037;-68
2021/09/18 03:35:06;;;;;;;;;12.00;12.00;;;;;19.57;55.72;100929.28;6279409;22;45404;-68
2021/09/18 03:37:34;;;;;;;;;7.50;6.25;;;;;19.75;55.61;100956.13;6279538;22;45287;-68
2021/09/18 03:40:04;;;;;;;;;12.75;10.75;;;;;19.79;55.40;100963.06;6277085;22;45461;-68
2021/09/18 03:42:30;;;;;;;;;13.50;12.50;;;;;19.55;55.37;100933.94;6277058;22;47090;-68
2021/09/18 03:44:55;;;;;;;;;10.25;9.00;;;;;19.62;55.15;100937.09;6278867;22;45280;-68
2021/09/18 03:47:20;;;;;;;;;12.25;12.25;;;;;19.63;55.24;100945.13;6279374;22;45225;-68
2021/09/18 03:49:46;;;;;;;;;10.25;10.25;;;;;19.66;55.44;100946.72;6278987;22;45520;-68
2021/09/18 03:52:11;;;;;;;;;9.75;9.75;;;;;19.52;55.71;100920.59;6279186;22;45335;-68
2021/09/18 03:54:36;;;;;;;;;10.00;10.00;;;;;19.67;55.66;100939.50;6277288;22;45816;-68
2021/09/18 03:57:02;;;;;;;;;11.00;10.50;;;;;19.55;55.93;100930.38;6279379;22;45405;-68
2021/09/18 03:59:27;;;;;;;;;12.75;12.00;;;;;19.62;55.57;100940.66;6302505;22;46267;-68
2021/09/18 04:01:53;;;;;;;;;10.75;9.75;;;;;19.76;55.50;100969.56;6279307;22;46423;-68
2021/09/18 04:04:18;;;;;;;;;12.50;9.25;;;;;19.59;56.06;100942.72;6279313;22;45199;-68
2021/09/18 04:06:44;;;;;;;;;12.75;11.00;;;;;19.58;55.82;100947.28;6279618;22;45149;-68
2021/09/18 04:09:09;;;;;;;;;9.25;9.25;;;;;19.61;55.73;100954.31;6277057;22;45914;-68
2021/09/18 04:11:35;;;;;;;;;10.50;8.00;;;;;19.63;55.94;100958.66;6303515;22;45400;-68
2021/09/18 04:14:00;;;;;;;;;12.25;11.25;;;;;19.56;55.89;100948.31;6279145;22;45211;-68
2021/09/18 04:16:25;;;;;;;;;9.50;9.50;;;;;19.54;56.00;100940.31;6279055;22;45397;-68
2021/09/18 04:18:51;;;;;;;;;12.00;12.00;;;;;19.71;55.93;100969.00;6276576;22;45436;-68
2021/09/18 04:21:16;;;;;;;;;11.00;11.00;;;;;19.65;56.07;100961.25;6279191;22;45989;-68
2021/09/18 04:23:42;;;;;;;;;12.00;8.75;;;;;19.55;56.24;100942.06;6303018;22;45360;-68
2021/09/18 04:26:07;;;;;;;;;9.25;9.25;;;;;19.65;55.78;100955.00;6303182;22;45417;-68
2021/09/18 04:28:33;;;;;;;;;15.50;13.50;;;;;19.56;56.31;100938.38;6302671;22;45481;-68
2021/09/18 04:30:58;;;;;;;;;11.75;10.75;;;;;19.49;56.32;100926.22;6276829;22;47524;-68
2021/09/18 04:33:23;;;;;;;;;12.00;12.00;;;;;19.56;56.21;100941.09;6278849;22;45181;-68
2021/09/18 04:35:49;;;;;;;;;13.75;13.75;;;;;19.57;56.13;100931.97;6279372;22;45195;-68
2021/09/18 04:38:14;;;;;;;;;13.25;13.25;;;;;19.58;56.02;100941.84;6278703;22;45350;-68
2021/09/18 04:40:39;;;;;;;;;11.25;11.25;;;;;19.53;56.33;100938.59;6278920;22;45415;-68
2021/09/18 04:43:05;;;;;;;;;10.50;10.50;;;;;19.56;56.19;100946.50;6278263;22;45373;-68
2021/09/18 04:45:31;;;;;;;;;11.00;10.75;;;;;19.67;56.12;100963.88;6276600;22;45402;-68
2021/09/18 04:47:56;;;;;;;;;12.50;12.50;;;;;19.67;56.38;100972.00;6278804;22;45532;-68
2021/09/18 04:50:22;;;;;;;;;13.00;12.25;;;;;19.68;55.89;100980.03;6277306;22;45251;-68
2021/09/18 04:52:47;;;;;;;;;13.25;11.25;;;;;19.65;56.11;100963.97;6279232;22;45097;-68
2021/09/18 04:55:12;;;;;;;;;11.25;11.00;;;;;19.63;56.59;100964.06;6277218;22;45146;-68
2021/09/18 04:57:38;;;;;;;;;12.50;12.50;;;;;19.54;56.15;100959.25;6302737;22;45211;-68
2021/09/18 05:00:04;;;;;;;;;11.75;10.75;;;;;19.53;56.64;100959.34;6302328;22;47098;-68
2021/09/18 05:02:30;;;;;;;;;13.25;12.25;;;;;19.67;56.41;100985.53;6278576;22;45078;-68
2021/09/18 05:04:55;;;;;;;;;12.25;12.25;;;;;19.62;56.49;100977.72;6279436;22;45257;-68
2021/09/18 05:07:21;;;;;;;;;14.75;14.75;;;;;19.69;56.28;100989.00;6278976;22;45235;-68
2021/09/18 05:09:46;;;;;;;;;15.75;13.00;;;;;19.55;56.65;100973.69;6277762;22;45361;-68
2021/09/18 05:12:11;;;;;;;;;11.75;11.75;;;;;19.57;56.29;100982.56;6276878;22;45255;-68
2021/09/18 05:14:37;;;;;;;;;14.75;14.50;;;;;19.43;56.64;100954.56;6276286;22;45397;-68
2021/09/18 05:17:02;;;;;;;;;14.00;13.50;;;;;19.52;56.58;100963.91;6278819;22;45341;-68
2021/09/18 05:19:28;;;;;;;;;13.50;13.00;;;;;19.52;56.46;100969.34;6278571;22;46671;-68
2021/09/18 05:21:53;;;;;;;;;10.75;10.50;;;;;19.62;56.58;100988.53;6302803;22;45326;-68
2021/09/18 05:24:18;;;;;;;;;11.75;11.50;;;;;19.47;56.60;100966.06;6278960;22;45301;-68
2021/09/18 05:26:44;;;;;;;;;8.75;8.50;;;;;19.57;56.36;100983.44;6276721;22;45444;-68
2021/09/18 05:29:09;;;;;;;;;9.25;9.25;;;;;19.59;56.21;101007.69;6278388;22;45449;-68
2021/09/18 05:31:34;;;;;;;;;12.50;12.50;;;;;19.49;56.02;100996.59;6278962;22;45309;-68
2021/09/18 05:34:00;;;;;;;;;12.00;11.00;;;;;19.35;56.59;100977.72;6278567;22;45393;-68
2021/09/18 05:36:25;;;;;;;;;14.25;10.75;;;;;19.32;56.50;100972.50;6278707;22;45313;-68
2021/09/18 05:38:50;;;;;;;;;15.00;13.50;;;;;19.51;56.69;101004.63;6278184;22;45195;-68
2021/09/18 05:41:16;;;;;;;;;13.25;12.00;;;;;19.49;56.23;101001.16;6276764;22;45623;-68
2021/09/18 05:43:41;;;;;;;;;14.00;12.50;;;;;19.31;56.76;100966.22;6276758;22;45305;-68
2021/09/18 05:46:06;;;;;;;;;13.75;12.75;;;;;19.36;56.61;100977.59;6277984;22;45377;-68
2021/09/18 05:48:32;;;;;;;;;19.25;17.25;;;;;19.29;56.29;100978.97;6302224;22;48722;-68
2021/09/18 05:50:57;;;;;;;;;21.25;18.50;;;;;19.38;56.42;100999.16;6302889;22;45348;-68
2021/09/18 05:53:23;;;;;;;;;28.75;24.25;;;;;19.24;56.50;100982.00;6251289;22;45271;-68
2021/09/18 05:55:49;;;;;;;;;17.75;17.75;;;;;19.31;56.76;100981.56;6278196;22;45600;-68
2021/09/18 05:58:15;;;;;;;;;26.50;23.75;;;;;19.49;56.54;101012.84;6278200;22;45362;-68
2021/09/18 06:00:40;;;;;;;;;20.25;18.50;;;;;19.31;55.97;100989.69;6278471;22;45184;-68
2021/09/18 06:03:05;;;;;;;;;18.25;17.50;;;;;19.23;56.37;100987.50;6277220;22;45283;-68
2021/09/18 06:05:31;;;;;;;;;14.25;12.50;;;;;19.00;56.30;100957.38;6277741;22;45473;-68
2021/09/18 06:07:56;;;;;;;;;16.00;15.50;;;;;19.12;56.26;100979.19;6276500;22;48323;-68
2021/09/18 06:10:22;;;;;;;;;13.00;12.00;;;;;19.12;56.27;100982.75;6278232;22;45321;-68
2021/09/18 06:12:47;;;;;;;;;13.00;13.00;;;;;19.28;56.48;101016.94;6278696;22;45338;-68
2021/09/18 06:15:12;;;;;;;;;12.50;12.00;;;;;19.15;56.54;100997.94;6275663;22;45409;-68
2021/09/18 06:17:38;;;;;;;;;16.00;13.75;;;;;19.23;56.65;101012.72;6276312;22;48307;-68
2021/09/18 06:20:04;;;;;;;;;12.75;12.75;;;;;19.18;56.40;100998.63;6278163;22;45377;-68
2021/09/18 06:22:29;;;;;;;;;12.00;12.00;;;;;19.32;56.44;101024.78;6278789;22;45341;-67
2021/09/18 06:24:55;;;;;;;;;11.25;9.75;;;;;19.12;56.22;100995.44;6278362;22;45379;-67
2021/09/18 06:27:20;;;;;;;;;10.75;10.75;;;;;19.18;56.39;101004.03;6302077;22;47128;-68
2021/09/18 06:29:46;;;;;;;;;15.00;13.50;;;;;19.33;56.34;101022.94;6277698;22;45066;-69
2021/09/18 06:32:11;;;;;;;;;13.50;10.75;;;;;19.22;56.46;101027.19;6278463;22;45140;-69
2021/09/18 06:34:37;;;;;;;;;15.75;14.25;;;;;19.27;56.39;101032.31;6278345;22;45162;-69
2021/09/18 06:37:06;;;;;;;;;14.00;13.50;;;;;19.30;56.15;101029.44;6277771;22;46591;-69
2021/09/18 06:39:33;;;;;;;;;12.25;11.50;;;;;19.18;56.39;101008.59;6277446;22;45227;-69
2021/09/18 06:41:59;;;;;;;;;11.00;9.50;;;;;19.25;56.48;101023.44;6302286;22;45347;-69
2021/09/18 06:44:24;;;;;;;;;12.50;12.50;;;;;19.16;56.35;101013.19;6277755;22;45948;-69
2021/09/18 06:46:50;;;;;;;;;12.50;11.25;;;;;18.99;56.40;100982.69;6276775;22;45338;-69
2021/09/18 06:49:15;;;;;;;;;11.25;9.25;;;;;19.04;56.50;100985.09;6278104;22;45322;-69
2021/09/18 06:51:40;;;;;;;;;11.75;11.75;;;;;19.12;56.65;101003.56;6277784;22;45362;-69
2021/09/18 06:54:06;;;;;;;;;12.50;11.00;;;;;19.17;56.69;101017.66;6277178;22;45155;-68
2021/09/18 06:56:31;;;;;;;;;8.00;7.25;;;;;19.27;56.53;101029.63;6258711;22;45438;-68
2021/09/18 06:58:57;;;;;;;;;9.75;9.75;;;;;19.30;56.61;101026.72;6275167;22;45172;-68
2021/09/18 07:01:23;;;;;;;;;13.25;12.00;;;;;19.33;56.43;101018.41;6249581;22;45245;-69
2021/09/18 07:03:49;;;;;;;;;15.00;12.75;;;;;19.31;56.48;101017.66;6277214;22;45213;-68
2021/09/18 07:06:14;;;;;;;;;11.75;9.75;;;;;19.28;56.54;101012.44;6278713;22;45255;-68
2021/09/18 07:08:39;;;;;;;;;11.00;11.00;;;;;19.31;56.25;101014.94;6278492;22;45416;-69
2021/09/18 07:11:05;;;;;;;;;12.00;10.75;;;;;19.34;56.55;101019.25;6276885;22;45366;-68
2021/09/18 07:13:30;;;;;;;;;10.50;10.50;;;;;19.36;56.68;101026.34;6276163;22;45298;-68
2021/09/18 07:15:56;;;;;;;;;8.75;8.25;;;;;19.29;56.30;101018.69;6278722;22;45309;-69
2021/09/18 07:18:22;;;;;;;;;13.50;11.00;;;;;19.28;56.41;101019.66;6278423;22;45235;-68
2021/09/18 07:20:47;;;;;;;;;11.50;10.50;;;;;19.16;55.99;100991.53;6278957;22;45477;-68
2021/09/18 07:23:13;;;;;;;;;9.25;9.25;;;;;19.40;56.00;101035.13;6278666;22;45513;-68
2021/09/18 07:25:39;;;;;;;;;7.75;7.75;;;;;19.40;55.94;101030.56;6278106;22;45373;-68
2021/09/18 07:28:04;;;;;;;;;8.50;8.50;;;;;19.44;56.33;101037.53;6301762;22;45467;-68
2021/09/18 07:30:30;;;;;;;;;10.00;8.00;;;;;19.38;56.23;101027.09;6277013;22;45445;-68
2021/09/18 07:32:56;;;;;;;;;9.25;9.25;;;;;19.49;55.97;101039.91;6276898;22;45452;-68
2021/09/18 07:35:21;;;;;;;;;14.25;8.75;;;;;19.41;56.00;101020.59;6277179;22;45955;-68
2021/09/18 07:37:47;;;;;;;;;7.50;7.50;;;;;19.49;55.73;101034.50;6277364;22;45360;-68
2021/09/18 07:40:13;;;;;;;;;13.00;11.00;;;;;19.49;55.80;101039.91;6278505;22;45240;-69
2021/09/18 07:42:39;;;;;;;;;8.00;8.00;;;;;19.33;55.48;101013.00;6279209;22;45309;-68
2021/09/18 07:45:06;;;;;;;;;6.75;6.75;;;;;19.47;56.09;101036.44;6278495;22;46102;-68
2021/09/18 07:47:31;;;;;;;;;8.00;8.00;;;;;19.40;55.98;101027.00;6278825;22;45508;-68
2021/09/18 07:49:57;;;;;;;;;7.75;6.75;;;;;19.35;55.62;101021.00;6278956;22;45270;-68
2021/09/18 07:52:23;;;;;;;;;9.75;9.75;;;;;19.39;55.75;101030.66;6276648;22;45492;-68
2021/09/18 07:54:49;;;;;;;;;11.00;11.00;;;;;19.36;55.76;101031.75;6278273;22;45416;-70
2021/09/18 07:57:15;;;;;;;;;8.75;8.75;;;;;19.47;55.75;101044.56;6278746;22;45283;-66
2021/09/18 07:59:41;;;;;;;;;7.75;7.75;;;;;19.50;55.78;101041.66;6278228;22;45413;-66
2021/09/18 08:02:06;;;;;;;;;8.25;8.25;;;;;19.37;55.44;101017.22;6278957;22;45393;-66
2021/09/18 08:04:33;;;;;;;;;12.00;11.00;;;;;19.39;55.38;101022.53;6278568;22;45279;-69
2021/09/18 08:06:58;;;;;;;;;9.25;9.25;;;;;19.28;55.46;101012.44;6278945;22;45227;-69
2021/09/18 08:09:24;;;;;;;;;10.25;10.25;;;;;19.50;55.60;101038.09;6278053;22;45284;-69
2021/09/18 08:11:50;;;;;;;;;9.00;9.00;;;;;19.41;55.58;101031.41;6278647;22;45551;-69
2021/09/18 08:14:15;;;;;;;;;14.00;13.75;;;;;19.37;55.52;101030.75;6277787;22;45446;-68
2021/09/18 08:16:41;;;;;;;;;9.50;9.50;;;;;19.29;55.68;101016.84;6276175;22;45387;-69
2021/09/18 08:19:06;;;;;;;;;10.00;10.00;;;;;19.48;55.77;101040.91;6278271;22;45270;-68
2021/09/18 08:21:32;;;;;;;;;12.25;11.25;;;;;19.49;56.41;101049.88;6278577;22;45309;-68
2021/09/18 08:23:57;;;;;;;;;7.50;7.50;;;;;19.53;55.96;101051.41;6276072;22;46175;-68
2021/09/18 08:26:29;;;;;;;;;12.00;12.00;;;;;19.52;55.94;101050.56;6274738;22;45386;-68
2021/09/18 08:28:55;;;;;;;;;11.75;11.75;;;;;19.43;55.86;101037.63;6275774;22;45381;-67
2021/09/18 08:31:20;;;;;;;;;11.50;10.25;;;;;19.62;55.69;101064.38;6276014;22;45277;-68
2021/09/18 08:33:45;;;;;;;;;13.25;11.00;;;;;19.54;55.39;101039.63;6301902;22;48326;-68
2021/09/18 08:36:11;;;;;;;;;13.75;12.50;;;;;19.50;56.30;101032.69;6276160;22;45377;-68
2021/09/18 08:38:36;;;;;;;;;12.25;11.00;;;;;19.70;55.83;101059.31;6302291;22;45331;-68
2021/09/18 08:41:02;;;;;;;;;12.75;11.25;;;;;19.71;55.87;101055.66;6302026;22;45472;-68
2021/09/18 08:43:27;;;;;;;;;14.75;13.75;;;;;19.67;55.91;101043.25;6275975;22;48480;-68
2021/09/18 08:45:54;;;;;;;;;10.50;10.50;;;;;19.77;55.90;101049.84;6278233;22;45341;-67
2021/09/18 08:48:22;;;;;;;;;10.50;10.50;;;;;19.67;55.83;101020.75;6276883;22;45327;-68
2021/09/18 08:50:49;;;;;;;;;10.75;10.75;;;;;19.84;55.91;101039.47;6278114;22;45321;-68
2021/09/18 08:53:15;;;;;;;;;11.00;11.00;;;;;19.71;56.11;101006.91;6278158;22;45352;-69
2021/09/18 08:55:40;;;;;;;;;12.50;11.25;;;;;19.94;55.27;101040.59;6278270;22;45215;-69
2021/09/18 08:58:06;;;;;;;;;11.50;11.50;;;;;19.90;55.47;101036.34;6276821;22;45393;-69
2021/09/18 09:00:34;;;;;;;;;10.50;9.50;;;;;19.99;55.94;101043.00;6275642;22;45354;-70
2021/09/18 09:03:02;;;;;;;;;13.50;11.00;;;;;19.91;56.31;101016.44;6278345;22;45341;-69
2021/09/18 09:05:33;;;;;;;;;10.75;10.75;;;;;20.09;55.42;101040.53;6278599;22;45444;-69
2021/09/18 09:08:04;;;;;;;;;12.75;11.75;;;;;20.12;55.89;101040.34;6278498;22;45349;-70
2021/09/18 09:10:29;;;;;;;;;13.50;13.50;;;;;20.05;55.76;101022.75;6277922;22;45276;-70
2021/09/18 09:13:05;;;;;;;;;12.75;11.75;;;;;20.05;54.98;101017.34;6276626;22;47151;-70
2021/09/18 09:15:30;;;;;;;;;7.75;7.75;;;;;20.12;55.37;101015.94;6277951;22;45951;-68
2021/09/18 09:18:36;;;;;;;;;13.00;12.00;;;;;20.27;55.57;101033.00;6278658;22;45310;-68
2021/09/18 09:21:14;;;;;;;;;10.00;10.00;;;;;20.24;54.91;101022.38;6278454;22;45362;-69
2021/09/18 09:23:41;;;;;;;;;13.75;11.75;;;;;20.21;54.97;101000.88;6278491;22;46035;-69
2021/09/18 09:26:07;;;;;;;;;13.75;12.50;;;;;20.28;54.67;101018.44;6276326;22;45379;-69
2021/09/18 09:28:40;;;;;;;;;9.75;9.75;;;;;20.21;54.39;100999.03;6277339;22;45263;-69
2021/09/18 09:31:24;;;;;;;;;10.50;9.50;;;;;20.36;54.28;101018.78;6278145;22;45286;-69
2021/09/18 09:34:07;;;;;;;;;10.50;10.50;;;;;20.30;54.83;101011.97;6277819;22;45474;-69
2021/09/18 09:36:48;;;;;;;;;12.25;10.75;;;;;20.39;54.58;101023.16;6278068;22;45348;-69
2021/09/18 09:39:15;;;;;;;;;9.00;9.00;;;;;20.31;55.00;100999.28;6276967;22;45330;-69
2021/09/18 09:41:46;;;;;;;;;11.00;9.75;;;;;20.51;54.95;101023.19;6278221;22;45468;-70
2021/09/18 09:44:15;;;;;;;;;12.75;11.00;;;;;20.57;55.22;101024.56;6277932;22;46271;-69
2021/09/18 09:46:41;;;;;;;;;10.00;10.00;;;;;20.39;55.07;100987.91;6275929;22;45258;-69
2021/09/18 09:49:10;;;;;;;;;11.25;10.75;;;;;20.54;54.79;101006.66;6277992;22;45322;-69
2021/09/18 09:51:36;;;;;;;;;9.75;9.75;;;;;20.72;54.36;101022.66;6278023;22;45298;-69
2021/09/18 09:54:20;;;;;;;;;10.00;10.00;;;;;20.69;54.46;101012.03;6277713;22;46723;-69
2021/09/18 09:56:47;;;;;;;;;12.50;12.50;;;;;20.79;54.35;101031.25;6277996;22;45360;-68
2021/09/18 09:59:26;;;;;;;;;10.75;9.00;;;;;20.60;54.55;100988.22;6301219;22;45243;-69
2021/09/18 10:01:52;;;;;;;;;9.00;9.00;;;;;20.62;54.28;100987.16;6278448;22;45206;-68
2021/09/18 10:04:18;;;;;;;;;11.00;11.00;;;;;20.85;54.16;101014.53;6277806;22;46618;-69
2021/09/18 10:06:44;;;;;;;;;8.25;8.25;;;;;20.83;53.96;101006.50;6278099;22;45287;-69
2021/09/18 10:09:10;;;;;;;;;8.75;8.75;;;;;20.90;54.21;101012.34;6277265;22;45425;-68
2021/09/18 10:11:36;;;;;;;;;9.75;8.75;;;;;21.08;53.97;101023.72;6278120;22;45287;-68
2021/09/18 10:14:02;;;;;;;;;10.25;10.25;;;;;21.12;54.10;101021.63;6277318;22;45590;-69
2021/09/18 10:16:32;;;;;;;;;9.25;9.00;;;;;21.14;53.62;101015.13;6277881;22;45310;-68
2021/09/18 10:18:59;;;;;;;;;8.50;7.25;;;;;21.15;54.03;101016.88;6276893;22;45250;-69
2021/09/18 10:24:11;;;;;;;;;7.50;7.25;;;;;21.28;54.22;101011.41;6277788;22;45725;-65
2021/09/18 10:26:37;;;;;;;;;10.00;9.00;;;;;21.28;53.40;100998.72;6277857;22;45294;-65
2021/09/18 10:29:03;;;;;;;;;9.25;7.75;;;;;21.28;53.16;100986.97;6275474;22;45168;-66
2021/09/18 10:31:29;;;;;;;;;6.75;6.75;;;;;21.37;53.89;100994.44;6278140;22;45431;-67
2021/09/18 10:33:55;;;;;;;;;8.75;8.75;;;;;21.51;54.02;101011.59;6275549;22;48380;-67
2021/09/18 10:36:21;;;;;;;;;9.00;8.00;;;;;21.56;53.57;101004.84;6277947;22;45558;-67
2021/09/18 10:39:07;;;;;;;;;6.75;6.75;;;;;21.58;53.96;100992.00;6275688;22;45391;-66
2021/09/18 10:41:45;;;;;;;;;9.00;6.50;;;;;21.67;53.91;100990.47;6276943;22;45678;-66
2021/09/18 10:44:12;;;;;;;;;9.75;8.00;;;;;21.75;52.76;100987.16;6276583;22;47823;-67
2021/09/18 10:46:40;;;;;;;;;5.25;5.00;;;;;21.83;53.39;100993.75;6278835;22;45473;-67
2021/09/18 10:49:26;;;;;;;;;7.75;7.00;;;;;21.84;53.10;100989.19;6278996;22;45453;-67
2021/09/18 10:51:54;;;;;;;;;8.00;7.50;;;;;21.62;52.75;100932.91;6276985;22;45365;-67
2021/09/18 10:54:20;;;;;;;;;8.75;8.75;;;;;21.95;52.79;100983.81;6278913;22;46115;-67
2021/09/18 10:57:06;;;;;;;;;7.75;7.25;;;;;21.84;52.71;100946.56;6279225;22;45360;-67
2021/09/18 10:59:39;;;;;;;;;7.75;7.00;;;;;22.07;53.14;100971.13;6277934;22;45554;-67
2021/09/18 11:02:32;;;;;;;;;7.50;7.00;;;;;22.11;53.06;100969.03;6278146;22;45470;-67
2021/09/18 11:05:06;;;;;;;;;7.00;7.00;;;;;22.10;52.60;100960.00;6278001;22;46157;-67
2021/09/18 11:07:52;;;;;;;;;7.25;6.75;;;;;22.14;52.97;100961.50;6279027;22;45604;-67
2021/09/18 11:10:49;;;;;;;;;7.00;7.00;;;;;22.22;52.75;100960.91;6279421;22;45431;-67
2021/09/18 11:13:14;;;;;;;;;8.00;7.25;;;;;22.27;52.19;100968.69;6279156;22;45469;-66
2021/09/18 11:16:04;;;;;;;;;6.50;6.50;;;;;22.31;52.83;100973.78;6278721;22;45994;-67